createdAt,value
2022-12-05T00:01:00.879Z,3.57
2022-12-05T00:03:28.144Z,2.73
2022-12-05T00:05:55.564Z,2.70
2022-12-05T00:08:22.848Z,2.97
2022-12-05T00:10:50.147Z,3.40
2022-12-05T00:13:17.549Z,3.00
2022-12-05T00:15:44.823Z,2.73
2022-12-05T00:18:12.116Z,2.90
2022-12-05T00:20:45.193Z,3.27
2022-12-05T00:23:12.538Z,3.33
2022-12-05T00:25:39.801Z,3.00
2022-12-05T00:28:07.087Z,3.20
2022-12-05T00:30:34.537Z,3.43
2022-12-05T00:33:01.793Z,2.80
2022-12-05T00:35:29.115Z,2.87
2022-12-05T00:37:56.454Z,3.17
2022-12-05T00:40:23.942Z,3.73
2022-12-05T00:42:52.584Z,2.73
2022-12-05T00:45:19.958Z,3.20
2022-12-05T00:47:47.382Z,2.77
2022-12-05T00:50:14.719Z,3.60
2022-12-05T00:52:42.019Z,2.60
2022-12-05T00:55:09.567Z,3.00
2022-12-05T00:57:36.848Z,3.33
2022-12-05T01:00:04.870Z,3.37
2022-12-05T01:02:32.217Z,2.43
2022-12-05T01:04:59.537Z,3.17
2022-12-05T01:07:26.938Z,2.87
2022-12-05T01:09:54.481Z,3.27
2022-12-05T01:12:21.838Z,2.67
2022-12-05T01:14:49.159Z,3.17
2022-12-05T01:17:16.443Z,2.93
2022-12-05T01:19:43.733Z,2.20
2022-12-05T01:22:11.198Z,3.73
2022-12-05T01:24:38.572Z,3.30
2022-12-05T01:27:05.861Z,2.93
2022-12-05T01:29:33.192Z,3.53
2022-12-05T01:32:00.767Z,2.40
2022-12-05T01:34:28.247Z,3.40
2022-12-05T01:36:55.649Z,2.87
2022-12-05T01:39:23.042Z,3.23
2022-12-05T01:41:50.991Z,2.37
2022-12-05T01:44:18.310Z,2.70
2022-12-05T01:46:47.683Z,4.17
2022-12-05T01:49:17.426Z,2.83
2022-12-05T01:51:48.890Z,2.97
2022-12-05T01:54:17.319Z,3.43
2022-12-05T01:56:46.957Z,2.93
2022-12-05T01:59:14.643Z,2.73
2022-12-05T02:01:42.266Z,3.57
2022-12-05T02:04:10.502Z,3.40
2022-12-05T02:06:37.953Z,3.10
2022-12-05T02:09:05.266Z,2.37
2022-12-05T02:11:34.192Z,2.73
2022-12-05T02:14:13.963Z,3.30
2022-12-05T02:16:41.547Z,3.07
2022-12-05T02:19:14.933Z,3.27
2022-12-05T02:21:42.290Z,3.87
2022-12-05T02:24:28.627Z,2.53
2022-12-05T02:27:04.973Z,3.27
2022-12-05T02:29:51.076Z,3.30
2022-12-05T02:32:21.461Z,2.40
2022-12-05T02:34:56.707Z,2.93
2022-12-05T02:37:28.656Z,2.60
2022-12-05T02:40:05.948Z,2.40
2022-12-05T02:42:42.420Z,2.73
2022-12-05T02:45:10.979Z,3.20
2022-12-05T02:47:40.435Z,3.07
2022-12-05T02:50:09.848Z,2.67
2022-12-05T02:52:37.282Z,3.20
2022-12-05T02:55:05.049Z,2.30
2022-12-05T02:57:32.812Z,3.27
2022-12-05T03:00:00.316Z,2.33
2022-12-05T03:02:31.518Z,2.83
2022-12-05T03:05:28.265Z,2.67
2022-12-05T03:07:57.370Z,2.53
2022-12-05T03:10:26.707Z,3.43
2022-12-05T03:12:56.816Z,2.40
2022-12-05T03:15:29.824Z,2.77
2022-12-05T03:18:09.403Z,2.93
2022-12-05T03:20:43.820Z,2.10
2022-12-05T03:23:21.244Z,2.30
2022-12-05T03:25:56.601Z,2.43
2022-12-05T03:28:32.746Z,2.50
2022-12-05T03:31:03.898Z,2.27
2022-12-05T03:33:35.382Z,3.03
2022-12-05T03:36:06.039Z,2.73
2022-12-05T03:38:55.227Z,2.47
2022-12-05T03:41:25.873Z,2.13
2022-12-05T03:43:58.642Z,2.33
2022-12-05T03:46:26.032Z,2.53
2022-12-05T03:48:56.468Z,2.40
2022-12-05T03:51:26.275Z,2.43
2022-12-05T03:53:58.906Z,2.47
2022-12-05T03:56:28.506Z,2.50
2022-12-05T03:59:19.315Z,3.73
2022-12-05T04:01:47.652Z,2.80
2022-12-05T04:04:17.595Z,3.10
2022-12-05T04:06:46.354Z,2.90
2022-12-05T04:09:17.549Z,2.53
2022-12-05T04:11:48.483Z,2.37
2022-12-05T04:14:16.950Z,2.80
2022-12-05T04:17:05.056Z,2.90
2022-12-05T04:20:13.915Z,2.70
2022-12-05T04:22:42.002Z,2.90
2022-12-05T04:25:29.563Z,3.57
2022-12-05T04:28:21.148Z,2.33
2022-12-05T04:30:49.100Z,2.80
2022-12-05T04:33:30.733Z,3.00
2022-12-05T04:36:01.156Z,3.10
2022-12-05T04:38:48.722Z,2.63
2022-12-05T04:41:23.072Z,2.63
2022-12-05T04:43:51.200Z,2.70
2022-12-05T04:46:20.370Z,2.77
2022-12-05T04:48:50.129Z,2.33
2022-12-05T04:51:19.367Z,3.03
2022-12-05T04:53:47.335Z,3.33
2022-12-05T04:56:16.742Z,3.00
2022-12-05T04:58:44.155Z,3.37
2022-12-05T05:01:15.631Z,2.40
2022-12-05T05:03:44.364Z,2.40
2022-12-05T05:06:12.730Z,3.17
2022-12-05T05:08:47.410Z,2.33
2022-12-05T05:11:19.959Z,3.77
2022-12-05T05:13:47.467Z,2.57
2022-12-05T05:16:19.387Z,2.97
2022-12-05T05:18:47.699Z,2.80
2022-12-05T05:21:20.370Z,3.70
2022-12-05T05:23:48.152Z,2.77
2022-12-05T05:26:15.824Z,2.80
2022-12-05T05:28:43.197Z,2.80
2022-12-05T05:31:10.828Z,4.17
2022-12-05T05:33:38.367Z,3.07
2022-12-05T05:36:06.872Z,3.47
2022-12-05T05:38:38.334Z,3.20
2022-12-05T05:41:05.994Z,3.73
2022-12-05T05:43:33.496Z,3.60
2022-12-05T05:46:03.903Z,2.83
2022-12-05T05:48:31.269Z,2.43
2022-12-05T05:51:02.759Z,2.67
2022-12-05T05:53:30.224Z,3.00
2022-12-05T05:55:57.812Z,2.33
2022-12-05T05:58:25.116Z,3.10
2022-12-05T06:00:52.469Z,2.70
2022-12-05T06:03:19.907Z,3.13
2022-12-05T06:05:57.210Z,2.57
2022-12-05T06:08:24.882Z,3.03
2022-12-05T06:10:52.414Z,2.77
2022-12-05T06:13:19.917Z,3.13
2022-12-05T06:15:47.290Z,2.87
2022-12-05T06:18:14.806Z,2.53
2022-12-05T06:20:42.136Z,3.20
2022-12-05T06:23:09.664Z,3.13
2022-12-05T06:25:37.126Z,2.57
2022-12-05T06:28:04.619Z,2.97
2022-12-05T06:30:31.977Z,2.97
2022-12-05T06:32:59.308Z,2.17
2022-12-05T06:35:26.705Z,2.80
2022-12-05T06:37:54.488Z,2.20
2022-12-05T06:40:22.156Z,2.33
2022-12-05T06:42:49.727Z,3.03
2022-12-05T06:45:17.290Z,2.33
2022-12-05T06:47:44.814Z,2.37
2022-12-05T06:50:12.404Z,1.67
2022-12-05T06:52:39.938Z,2.80
2022-12-05T06:55:08.521Z,2.33
2022-12-05T06:57:40.851Z,2.70
2022-12-05T07:00:27.552Z,2.50
2022-12-05T07:02:54.987Z,2.70
2022-12-05T07:05:26.836Z,2.10
2022-12-05T07:07:57.487Z,2.47
2022-12-05T07:10:24.916Z,2.33
2022-12-05T07:12:54.458Z,2.07
2022-12-05T07:15:25.026Z,2.23
2022-12-05T07:17:52.443Z,2.27
2022-12-05T07:20:19.903Z,1.83
2022-12-05T07:22:47.259Z,2.80
2022-12-05T07:25:14.809Z,2.70
2022-12-05T07:27:42.145Z,2.63
2022-12-05T07:30:09.884Z,2.07
2022-12-05T07:32:37.218Z,2.40
2022-12-05T07:35:04.756Z,1.83
2022-12-05T07:37:32.176Z,2.80
2022-12-05T07:40:02.849Z,2.33
2022-12-05T07:42:30.221Z,2.10
2022-12-05T07:44:57.663Z,2.07
2022-12-05T07:47:25.138Z,2.30
2022-12-05T07:49:52.657Z,1.73
2022-12-05T07:52:20.004Z,2.00
2022-12-05T07:54:47.422Z,1.80
2022-12-05T07:57:15.183Z,1.97
2022-12-05T10:26:03.789Z,1.57
2022-12-05T10:28:43.989Z,1.67
2022-12-05T10:31:13.350Z,1.50
2022-12-05T10:33:52.619Z,1.80
2022-12-05T10:36:20.089Z,1.77
2022-12-05T10:38:47.613Z,1.93
2022-12-05T10:41:15.542Z,1.83
2022-12-05T10:43:46.309Z,1.70
2022-12-05T10:46:17.263Z,1.47
2022-12-05T10:48:45.014Z,2.10
2022-12-05T10:51:15.119Z,2.20
2022-12-05T10:53:49.545Z,1.70
2022-12-05T10:56:35.733Z,1.73
2022-12-05T10:59:03.469Z,1.60
2022-12-05T11:01:32.006Z,1.70
2022-12-05T11:04:00.403Z,2.00
2022-12-05T11:06:28.939Z,1.97
2022-12-05T11:09:05.044Z,1.60
2022-12-05T11:11:34.039Z,1.50
2022-12-05T11:14:06.140Z,1.90
2022-12-05T11:16:35.282Z,1.77
2022-12-05T11:19:33.350Z,1.73
2022-12-05T11:22:01.184Z,1.70
2022-12-05T11:24:32.654Z,1.77
2022-12-05T11:27:18.332Z,1.47
2022-12-05T11:29:54.615Z,1.87
2022-12-05T11:32:26.274Z,1.90
2022-12-05T11:35:17.414Z,1.70
2022-12-05T11:37:53.439Z,1.50
2022-12-05T11:40:39.587Z,1.73
2022-12-05T11:43:07.127Z,1.77
2022-12-05T11:45:43.643Z,1.97
2022-12-05T11:48:11.052Z,1.77
2022-12-05T11:50:43.500Z,1.93
2022-12-05T11:53:26.989Z,1.70
2022-12-05T11:55:59.985Z,1.60
2022-12-05T11:58:42.396Z,1.83
2022-12-05T12:01:18.334Z,1.47
2022-12-05T12:04:00.977Z,1.90
2022-12-05T12:06:30.265Z,1.60
2022-12-05T12:09:03.817Z,1.50
2022-12-05T12:11:31.222Z,1.70
2022-12-05T12:14:17.435Z,1.67
2022-12-05T12:16:45.277Z,1.50
2022-12-05T12:19:15.870Z,1.60
2022-12-05T12:22:04.009Z,1.90
2022-12-05T12:24:34.306Z,1.70
2022-12-05T12:27:20.426Z,1.50
2022-12-05T12:29:56.893Z,1.67
2022-12-05T12:32:36.029Z,1.83
2022-12-05T12:35:24.116Z,1.77
2022-12-05T12:38:35.655Z,1.63
2022-12-05T12:41:23.216Z,1.67
2022-12-05T12:44:09.328Z,1.70
2022-12-05T12:46:36.681Z,1.50
2022-12-05T12:49:56.859Z,1.93
2022-12-05T12:52:52.329Z,1.40
2022-12-05T12:55:28.042Z,1.60
2022-12-05T12:57:55.508Z,1.77
2022-12-05T13:00:38.382Z,1.63
2022-12-05T13:06:34.651Z,2.03
2022-12-05T13:09:19.005Z,1.60
2022-12-05T13:11:47.768Z,2.10
2022-12-05T13:14:16.733Z,1.60
2022-12-05T13:16:48.261Z,1.57
2022-12-05T13:19:28.396Z,1.63
2022-12-05T13:21:57.335Z,1.67
2022-12-05T13:24:27.015Z,1.37
2022-12-05T13:26:54.900Z,1.53
2022-12-05T13:29:24.980Z,2.00
2022-12-05T13:31:53.509Z,1.97
2022-12-05T13:34:41.530Z,1.70
2022-12-05T13:37:41.420Z,1.80
2022-12-05T13:40:48.248Z,1.73
2022-12-05T13:43:18.590Z,1.43
2022-12-05T13:46:13.852Z,1.60
2022-12-05T13:48:43.133Z,1.70
2022-12-05T13:51:13.585Z,1.80
2022-12-05T13:53:49.352Z,2.03
2022-12-05T13:56:16.735Z,1.57
2022-12-05T13:58:47.363Z,1.70
2022-12-05T14:01:27.236Z,1.53
2022-12-05T14:03:56.337Z,2.07
2022-12-05T14:06:38.612Z,2.00
2022-12-05T14:09:18.225Z,1.57
2022-12-05T14:12:04.346Z,2.03
2022-12-05T14:14:50.503Z,1.80
2022-12-05T14:17:17.988Z,1.67
2022-12-05T14:20:01.174Z,2.03
2022-12-05T14:22:50.636Z,1.60
2022-12-05T14:25:18.037Z,1.43
2022-12-05T14:27:59.908Z,1.43
2022-12-05T14:30:35.390Z,2.07
2022-12-05T14:33:03.214Z,1.70
2022-12-05T14:35:32.144Z,1.73
2022-12-05T14:38:05.399Z,1.80
2022-12-05T14:40:32.882Z,1.47
2022-12-05T14:43:05.217Z,1.80
2022-12-05T14:45:32.961Z,1.33
2022-12-05T14:48:01.772Z,1.60
2022-12-05T14:50:38.748Z,1.40
2022-12-05T14:53:21.536Z,1.90
2022-12-05T14:55:59.963Z,1.50
2022-12-05T14:58:33.583Z,1.70
2022-12-05T15:01:13.196Z,1.93
2022-12-05T15:03:43.363Z,1.60
2022-12-05T15:06:17.077Z,1.53
2022-12-05T15:08:50.540Z,1.43
2022-12-05T15:11:30.513Z,1.40
2022-12-05T15:14:17.736Z,1.57
2022-12-05T15:16:50.250Z,1.30
2022-12-05T15:19:30.105Z,1.60
2022-12-05T15:22:00.067Z,1.50
2022-12-05T15:24:27.839Z,1.40
2022-12-05T15:27:02.150Z,1.60
2022-12-05T15:29:36.380Z,1.23
2022-12-05T15:32:06.417Z,1.77
2022-12-05T15:34:41.574Z,1.60
2022-12-05T15:37:12.760Z,1.67
2022-12-05T15:39:59.635Z,1.50
2022-12-05T15:42:47.390Z,1.93
2022-12-05T15:45:14.917Z,1.70
2022-12-05T15:47:43.068Z,1.60
2022-12-05T15:50:14.767Z,1.60
2022-12-05T15:52:46.589Z,1.47
2022-12-05T15:55:26.298Z,1.23
2022-12-05T15:57:56.772Z,1.77
2022-12-05T16:00:26.156Z,1.47
2022-12-05T16:02:56.955Z,1.60
2022-12-05T21:27:54.739Z,1.67
2022-12-05T22:19:44.635Z,1.30
2022-12-05T22:22:12.276Z,1.30
2022-12-05T22:24:40.151Z,1.20
2022-12-05T22:27:07.698Z,1.37
2022-12-05T22:29:35.309Z,1.37
2022-12-05T22:32:02.758Z,1.27
2022-12-05T22:34:30.138Z,1.50
2022-12-05T22:36:57.584Z,1.37
2022-12-05T22:39:25.006Z,1.20
2022-12-05T22:41:52.818Z,1.10
2022-12-05T22:44:20.199Z,1.50
2022-12-05T22:46:50.805Z,1.37
2022-12-05T22:49:23.751Z,1.20
2022-12-05T22:51:53.634Z,1.23
2022-12-05T22:54:23.597Z,1.27
2022-12-05T22:56:54.080Z,1.43
2022-12-05T22:59:21.438Z,1.27
2022-12-05T23:01:49.935Z,1.20
2022-12-05T23:04:17.615Z,1.27
2022-12-05T23:06:45.119Z,1.10
2022-12-05T23:09:16.947Z,1.17
2022-12-05T23:11:44.660Z,1.10
2022-12-05T23:14:12.062Z,1.10
2022-12-05T23:16:41.844Z,1.40
2022-12-05T23:19:11.750Z,1.07
2022-12-05T23:21:40.221Z,1.00
2022-12-05T23:24:11.729Z,1.07
2022-12-05T23:26:43.147Z,1.10
2022-12-05T23:29:14.393Z,1.57
2022-12-05T23:31:42.458Z,1.23
2022-12-05T23:34:22.272Z,1.30
2022-12-05T23:36:50.386Z,1.30
2022-12-05T23:39:17.825Z,1.13
2022-12-05T23:41:48.946Z,1.07
2022-12-05T23:44:16.773Z,1.30
2022-12-05T23:46:44.403Z,1.17
2022-12-05T23:49:14.890Z,1.10
2022-12-05T23:51:50.324Z,1.07
2022-12-05T23:54:17.799Z,1.20
2022-12-05T23:56:47.594Z,1.13
2022-12-05T23:59:15.110Z,1.20
